sensor_id;sensor_type;location;lat;lon;timestamp;temperature;humidity
33715;DHT22;20043;50.998;4.754;2024-01-27T00:01:34;5.00;99.90
33715;DHT22;20043;50.998;4.754;2024-01-27T00:04:00;5.00;99.90
33715;DHT22;20043;50.998;4.754;2024-01-27T00:06:26;5.00;99.90
33715;DHT22;20043;50.998;4.754;2024-01-27T00:08:51;4.90;99.90
33715;DHT22;20043;50.998;4.754;2024-01-27T00:11:17;4.90;99.90
33715;DHT22;20043;50.998;4.754;2024-01-27T00:13:44;4.80;99.90
33715;DHT22;20043;50.998;4.754;2024-01-27T00:16:10;4.80;99.90
33715;DHT22;20043;50.998;4.754;2024-01-27T00:18:36;4.80;99.90
33715;DHT22;20043;50.998;4.754;2024-01-27T00:21:03;4.90;99.90
33715;DHT22;20043;50.998;4.754;2024-01-27T00:23:29;4.80;99.90
33715;DHT22;20043;50.998;4.754;2024-01-27T00:25:54;4.80;99.90
33715;DHT22;20043;50.998;4.754;2024-01-27T00:28:20;4.80;99.90
33715;DHT22;20043;50.998;4.754;2024-01-27T00:30:46;4.60;99.90
33715;DHT22;20043;50.998;4.754;2024-01-27T00:33:11;4.60;99.90
33715;DHT22;20043;50.998;4.754;2024-01-27T00:35:37;4.60;99.90
33715;DHT22;20043;50.998;4.754;2024-01-27T00:38:03;4.60;99.90
33715;DHT22;20043;50.998;4.754;2024-01-27T00:40:29;4.70;99.90
33715;DHT22;20043;50.998;4.754;2024-01-27T00:42:54;4.70;99.90
33715;DHT22;20043;50.998;4.754;2024-01-27T00:45:20;4.80;99.90
33715;DHT22;20043;50.998;4.754;2024-01-27T00:47:49;4.90;99.90
33715;DHT22;20043;50.998;4.754;2024-01-27T00:50:15;4.90;99.90
33715;DHT22;20043;50.998;4.754;2024-01-27T00:52:41;4.80;99.90
33715;DHT22;20043;50.998;4.754;2024-01-27T00:55:07;4.80;99.90
33715;DHT22;20043;50.998;4.754;2024-01-27T00:57:33;4.70;99.90
33715;DHT22;20043;50.998;4.754;2024-01-27T00:59:58;4.70;99.90
33715;DHT22;20043;50.998;4.754;2024-01-27T01:02:24;4.60;99.90
33715;DHT22;20043;50.998;4.754;2024-01-27T01:04:49;4.50;99.90
33715;DHT22;20043;50.998;4.754;2024-01-27T01:07:15;4.40;99.90
33715;DHT22;20043;50.998;4.754;2024-01-27T01:09:41;4.40;99.90
33715;DHT22;20043;50.998;4.754;2024-01-27T01:12:06;4.40;99.90
33715;DHT22;20043;50.998;4.754;2024-01-27T01:14:32;4.30;99.90
33715;DHT22;20043;50.998;4.754;2024-01-27T01:16:58;4.30;99.90
33715;DHT22;20043;50.998;4.754;2024-01-27T01:19:23;4.50;99.90
33715;DHT22;20043;50.998;4.754;2024-01-27T01:21:49;4.60;99.90
33715;DHT22;20043;50.998;4.754;2024-01-27T01:24:15;4.70;99.90
33715;DHT22;20043;50.998;4.754;2024-01-27T01:26:40;4.50;99.90
33715;DHT22;20043;50.998;4.754;2024-01-27T01:29:06;4.40;99.90
33715;DHT22;20043;50.998;4.754;2024-01-27T01:31:32;4.40;99.90
33715;DHT22;20043;50.998;4.754;2024-01-27T01:33:57;4.30;99.90
33715;DHT22;20043;50.998;4.754;2024-01-27T01:36:23;4.30;99.90
33715;DHT22;20043;50.998;4.754;2024-01-27T01:38:49;4.40;99.90
33715;DHT22;20043;50.998;4.754;2024-01-27T01:41:14;4.40;99.90
33715;DHT22;20043;50.998;4.754;2024-01-27T01:43:40;4.30;99.90
33715;DHT22;20043;50.998;4.754;2024-01-27T01:46:06;4.30;99.90
33715;DHT22;20043;50.998;4.754;2024-01-27T01:48:32;4.30;99.90
33715;DHT22;20043;50.998;4.754;2024-01-27T01:50:59;4.30;99.90
33715;DHT22;20043;50.998;4.754;2024-01-27T01:53:25;4.40;99.90
33715;DHT22;20043;50.998;4.754;2024-01-27T01:55:52;4.40;99.90
33715;DHT22;20043;50.998;4.754;2024-01-27T01:58:18;4.40;99.90
33715;DHT22;20043;50.998;4.754;2024-01-27T02:00:44;4.30;99.90
33715;DHT22;20043;50.998;4.754;2024-01-27T02:03:13;4.30;99.90
33715;DHT22;20043;50.998;4.754;2024-01-27T02:05:39;4.20;99.90
33715;DHT22;20043;50.998;4.754;2024-01-27T02:08:05;4.10;99.90
33715;DHT22;20043;50.998;4.754;2024-01-27T02:10:31;4.00;99.90
33715;DHT22;20043;50.998;4.754;2024-01-27T02:13:24;3.90;99.90
33715;DHT22;20043;50.998;4.754;2024-01-27T02:15:50;3.90;99.90
33715;DHT22;20043;50.998;4.754;2024-01-27T02:18:16;4.00;99.90
33715;DHT22;20043;50.998;4.754;2024-01-27T02:20:42;4.10;99.90
33715;DHT22;20043;50.998;4.754;2024-01-27T02:23:08;4.00;99.90
33715;DHT22;20043;50.998;4.754;2024-01-27T02:25:34;4.10;99.90
33715;DHT22;20043;50.998;4.754;2024-01-27T02:28:01;4.00;99.90
33715;DHT22;20043;50.998;4.754;2024-01-27T02:30:28;3.90;99.90
33715;DHT22;20043;50.998;4.754;2024-01-27T02:32:56;3.80;99.90
33715;DHT22;20043;50.998;4.754;2024-01-27T02:35:22;3.80;99.90
33715;DHT22;20043;50.998;4.754;2024-01-27T02:37:48;3.70;99.90
33715;DHT22;20043;50.998;4.754;2024-01-27T02:40:14;3.60;99.90
33715;DHT22;20043;50.998;4.754;2024-01-27T02:42:40;3.60;99.90
33715;DHT22;20043;50.998;4.754;2024-01-27T02:45:10;3.50;99.90
33715;DHT22;20043;50.998;4.754;2024-01-27T02:47:37;3.50;99.90
33715;DHT22;20043;50.998;4.754;2024-01-27T02:50:02;3.50;99.90
33715;DHT22;20043;50.998;4.754;2024-01-27T02:52:29;3.60;99.90
33715;DHT22;20043;50.998;4.754;2024-01-27T02:54:55;3.60;99.90
33715;DHT22;20043;50.998;4.754;2024-01-27T02:57:21;3.60;99.90
33715;DHT22;20043;50.998;4.754;2024-01-27T02:59:47;3.60;99.90
33715;DHT22;20043;50.998;4.754;2024-01-27T03:02:12;3.60;99.90
33715;DHT22;20043;50.998;4.754;2024-01-27T03:04:44;3.60;99.90
33715;DHT22;20043;50.998;4.754;2024-01-27T03:07:10;3.60;99.90
33715;DHT22;20043;50.998;4.754;2024-01-27T03:09:35;3.50;99.90
33715;DHT22;20043;50.998;4.754;2024-01-27T03:12:02;3.60;99.90
33715;DHT22;20043;50.998;4.754;2024-01-27T03:14:28;3.50;99.90
33715;DHT22;20043;50.998;4.754;2024-01-27T03:16:54;3.50;99.90
33715;DHT22;20043;50.998;4.754;2024-01-27T03:19:20;3.50;99.90
33715;DHT22;20043;50.998;4.754;2024-01-27T03:21:45;3.60;99.90
33715;DHT22;20043;50.998;4.754;2024-01-27T03:24:11;3.60;99.90
33715;DHT22;20043;50.998;4.754;2024-01-27T03:26:36;3.60;99.90
33715;DHT22;20043;50.998;4.754;2024-01-27T03:29:02;3.60;99.90
33715;DHT22;20043;50.998;4.754;2024-01-27T03:31:31;3.50;99.90
33715;DHT22;20043;50.998;4.754;2024-01-27T03:33:58;3.60;99.90
33715;DHT22;20043;50.998;4.754;2024-01-27T03:36:24;3.60;99.90
33715;DHT22;20043;50.998;4.754;2024-01-27T03:38:50;3.60;99.90
33715;DHT22;20043;50.998;4.754;2024-01-27T03:41:15;3.70;99.90
33715;DHT22;20043;50.998;4.754;2024-01-27T03:43:41;3.70;99.90
33715;DHT22;20043;50.998;4.754;2024-01-27T03:46:07;3.70;99.90
33715;DHT22;20043;50.998;4.754;2024-01-27T03:48:32;3.60;99.90
33715;DHT22;20043;50.998;4.754;2024-01-27T03:51:00;3.60;99.90
33715;DHT22;20043;50.998;4.754;2024-01-27T03:53:26;3.50;99.90
33715;DHT22;20043;50.998;4.754;2024-01-27T03:55:53;3.50;99.90
33715;DHT22;20043;50.998;4.754;2024-01-27T03:58:18;3.40;99.90
33715;DHT22;20043;50.998;4.754;2024-01-27T04:00:44;3.50;99.90
33715;DHT22;20043;50.998;4.754;2024-01-27T04:03:10;3.60;99.90
33715;DHT22;20043;50.998;4.754;2024-01-27T04:05:36;3.30;99.90
33715;DHT22;20043;50.998;4.754;2024-01-27T04:08:02;3.40;99.90
33715;DHT22;20043;50.998;4.754;2024-01-27T04:10:27;3.30;99.90
33715;DHT22;20043;50.998;4.754;2024-01-27T04:12:53;3.40;99.90
33715;DHT22;20043;50.998;4.754;2024-01-27T04:15:19;3.50;99.90
33715;DHT22;20043;50.998;4.754;2024-01-27T04:17:45;3.50;99.90
33715;DHT22;20043;50.998;4.754;2024-01-27T04:20:11;3.70;99.90
33715;DHT22;20043;50.998;4.754;2024-01-27T04:22:36;3.60;99.90
33715;DHT22;20043;50.998;4.754;2024-01-27T04:25:02;3.50;99.90
33715;DHT22;20043;50.998;4.754;2024-01-27T04:27:29;3.60;99.90
33715;DHT22;20043;50.998;4.754;2024-01-27T04:29:55;3.50;99.90
33715;DHT22;20043;50.998;4.754;2024-01-27T04:32:22;3.50;99.90
33715;DHT22;20043;50.998;4.754;2024-01-27T04:34:49;3.50;99.90
33715;DHT22;20043;50.998;4.754;2024-01-27T04:37:14;3.50;99.90
33715;DHT22;20043;50.998;4.754;2024-01-27T04:39:40;3.50;99.90
33715;DHT22;20043;50.998;4.754;2024-01-27T04:42:06;3.50;99.90
33715;DHT22;20043;50.998;4.754;2024-01-27T04:44:32;3.40;99.90
33715;DHT22;20043;50.998;4.754;2024-01-27T04:46:58;3.40;99.90
33715;DHT22;20043;50.998;4.754;2024-01-27T04:49:24;3.40;99.90
33715;DHT22;20043;50.998;4.754;2024-01-27T04:51:49;3.40;99.90
33715;DHT22;20043;50.998;4.754;2024-01-27T04:54:15;3.40;99.90
33715;DHT22;20043;50.998;4.754;2024-01-27T04:56:41;3.40;99.90
33715;DHT22;20043;50.998;4.754;2024-01-27T04:59:07;3.40;99.90
33715;DHT22;20043;50.998;4.754;2024-01-27T05:01:33;3.40;99.90
33715;DHT22;20043;50.998;4.754;2024-01-27T05:03:59;3.40;99.90
33715;DHT22;20043;50.998;4.754;2024-01-27T05:06:24;3.40;99.90
33715;DHT22;20043;50.998;4.754;2024-01-27T05:08:50;3.40;99.90
33715;DHT22;20043;50.998;4.754;2024-01-27T05:11:29;3.50;99.90
33715;DHT22;20043;50.998;4.754;2024-01-27T05:13:56;3.50;99.90
33715;DHT22;20043;50.998;4.754;2024-01-27T05:16:22;3.50;99.90
33715;DHT22;20043;50.998;4.754;2024-01-27T05:18:47;3.60;99.90
33715;DHT22;20043;50.998;4.754;2024-01-27T05:21:14;3.50;99.90
33715;DHT22;20043;50.998;4.754;2024-01-27T05:23:39;3.50;99.90
33715;DHT22;20043;50.998;4.754;2024-01-27T05:26:08;3.40;99.90
33715;DHT22;20043;50.998;4.754;2024-01-27T05:28:35;3.50;99.90
33715;DHT22;20043;50.998;4.754;2024-01-27T05:31:01;3.40;99.90
33715;DHT22;20043;50.998;4.754;2024-01-27T05:33:27;3.30;99.90
33715;DHT22;20043;50.998;4.754;2024-01-27T05:35:53;3.40;99.90
33715;DHT22;20043;50.998;4.754;2024-01-27T05:38:18;3.30;99.90
33715;DHT22;20043;50.998;4.754;2024-01-27T05:40:44;3.20;99.90
33715;DHT22;20043;50.998;4.754;2024-01-27T05:43:10;3.30;99.90
33715;DHT22;20043;50.998;4.754;2024-01-27T05:45:36;3.40;99.90
33715;DHT22;20043;50.998;4.754;2024-01-27T05:48:02;3.30;99.90
33715;DHT22;20043;50.998;4.754;2024-01-27T05:50:28;3.30;99.90
33715;DHT22;20043;50.998;4.754;2024-01-27T05:52:56;3.30;99.90
33715;DHT22;20043;50.998;4.754;2024-01-27T05:55:21;3.40;99.90
33715;DHT22;20043;50.998;4.754;2024-01-27T05:57:47;3.30;99.90
33715;DHT22;20043;50.998;4.754;2024-01-27T06:00:20;3.20;99.90
33715;DHT22;20043;50.998;4.754;2024-01-27T06:02:46;3.20;99.90
33715;DHT22;20043;50.998;4.754;2024-01-27T06:05:12;3.20;99.90
33715;DHT22;20043;50.998;4.754;2024-01-27T06:07:38;3.40;99.90
33715;DHT22;20043;50.998;4.754;2024-01-27T06:10:07;3.30;99.90
33715;DHT22;20043;50.998;4.754;2024-01-27T06:12:33;3.30;99.90
33715;DHT22;20043;50.998;4.754;2024-01-27T06:15:00;3.10;99.90
33715;DHT22;20043;50.998;4.754;2024-01-27T06:17:34;3.20;99.90
33715;DHT22;20043;50.998;4.754;2024-01-27T06:19:59;3.00;99.90
33715;DHT22;20043;50.998;4.754;2024-01-27T06:22:25;3.10;99.90
33715;DHT22;20043;50.998;4.754;2024-01-27T06:24:50;3.00;99.90
33715;DHT22;20043;50.998;4.754;2024-01-27T06:27:16;3.00;99.90
33715;DHT22;20043;50.998;4.754;2024-01-27T06:29:42;3.00;99.90
33715;DHT22;20043;50.998;4.754;2024-01-27T06:32:09;3.00;99.90
33715;DHT22;20043;50.998;4.754;2024-01-27T06:34:35;2.90;99.90
33715;DHT22;20043;50.998;4.754;2024-01-27T06:37:00;2.80;99.90
33715;DHT22;20043;50.998;4.754;2024-01-27T06:39:26;2.80;99.90
33715;DHT22;20043;50.998;4.754;2024-01-27T06:41:52;2.70;99.90
33715;DHT22;20043;50.998;4.754;2024-01-27T06:44:17;2.80;99.90
33715;DHT22;20043;50.998;4.754;2024-01-27T06:46:43;2.80;99.90
33715;DHT22;20043;50.998;4.754;2024-01-27T06:49:11;2.90;99.90
33715;DHT22;20043;50.998;4.754;2024-01-27T06:51:36;2.90;99.90
33715;DHT22;20043;50.998;4.754;2024-01-27T06:54:02;3.10;99.90
33715;DHT22;20043;50.998;4.754;2024-01-27T06:56:27;3.30;99.90
33715;DHT22;20043;50.998;4.754;2024-01-27T06:58:53;3.20;99.90
33715;DHT22;20043;50.998;4.754;2024-01-27T07:01:18;3.00;99.90
33715;DHT22;20043;50.998;4.754;2024-01-27T07:03:44;3.00;99.90
33715;DHT22;20043;50.998;4.754;2024-01-27T07:06:10;3.00;99.90
33715;DHT22;20043;50.998;4.754;2024-01-27T07:08:35;3.10;99.90
33715;DHT22;20043;50.998;4.754;2024-01-27T07:11:01;3.10;99.90
33715;DHT22;20043;50.998;4.754;2024-01-27T07:13:33;3.20;99.90
33715;DHT22;20043;50.998;4.754;2024-01-27T07:15:59;3.10;99.90
33715;DHT22;20043;50.998;4.754;2024-01-27T07:18:25;3.10;99.90
33715;DHT22;20043;50.998;4.754;2024-01-27T07:20:51;3.10;99.90
33715;DHT22;20043;50.998;4.754;2024-01-27T07:23:17;3.00;99.90
33715;DHT22;20043;50.998;4.754;2024-01-27T07:25:43;3.10;99.90
33715;DHT22;20043;50.998;4.754;2024-01-27T07:28:09;3.30;99.90
33715;DHT22;20043;50.998;4.754;2024-01-27T07:30:35;3.40;99.90
33715;DHT22;20043;50.998;4.754;2024-01-27T07:33:01;3.40;99.90
33715;DHT22;20043;50.998;4.754;2024-01-27T07:35:26;3.20;99.90
33715;DHT22;20043;50.998;4.754;2024-01-27T07:37:52;3.10;99.90
33715;DHT22;20043;50.998;4.754;2024-01-27T07:40:18;3.10;99.90
33715;DHT22;20043;50.998;4.754;2024-01-27T07:42:43;3.20;99.90
33715;DHT22;20043;50.998;4.754;2024-01-27T07:45:09;3.20;99.90
33715;DHT22;20043;50.998;4.754;2024-01-27T07:47:35;3.20;99.90
33715;DHT22;20043;50.998;4.754;2024-01-27T07:50:00;3.30;99.90
33715;DHT22;20043;50.998;4.754;2024-01-27T07:52:26;3.20;99.90
33715;DHT22;20043;50.998;4.754;2024-01-27T07:54:52;3.40;99.90
33715;DHT22;20043;50.998;4.754;2024-01-27T07:57:20;3.50;99.90
33715;DHT22;20043;50.998;4.754;2024-01-27T07:59:46;3.60;99.90
33715;DHT22;20043;50.998;4.754;2024-01-27T08:02:11;3.70;99.90
33715;DHT22;20043;50.998;4.754;2024-01-27T08:04:38;3.60;99.90
33715;DHT22;20043;50.998;4.754;2024-01-27T08:07:04;3.60;99.90
33715;DHT22;20043;50.998;4.754;2024-01-27T08:09:35;3.60;99.90
33715;DHT22;20043;50.998;4.754;2024-01-27T08:12:01;3.60;99.90
33715;DHT22;20043;50.998;4.754;2024-01-27T08:14:28;3.80;99.90
33715;DHT22;20043;50.998;4.754;2024-01-27T08:16:58;3.90;99.90
33715;DHT22;20043;50.998;4.754;2024-01-27T08:19:24;4.10;99.90
33715;DHT22;20043;50.998;4.754;2024-01-27T08:21:50;4.10;99.90
33715;DHT22;20043;50.998;4.754;2024-01-27T08:24:16;4.30;99.90
33715;DHT22;20043;50.998;4.754;2024-01-27T08:26:41;4.40;99.90
33715;DHT22;20043;50.998;4.754;2024-01-27T08:29:08;4.40;99.90
33715;DHT22;20043;50.998;4.754;2024-01-27T08:31:34;4.30;99.90
33715;DHT22;20043;50.998;4.754;2024-01-27T08:34:00;4.30;99.90
33715;DHT22;20043;50.998;4.754;2024-01-27T08:36:25;4.30;99.90
33715;DHT22;20043;50.998;4.754;2024-01-27T08:38:51;4.30;99.90
33715;DHT22;20043;50.998;4.754;2024-01-27T08:41:16;4.40;99.90
33715;DHT22;20043;50.998;4.754;2024-01-27T08:43:42;4.30;99.90
33715;DHT22;20043;50.998;4.754;2024-01-27T08:46:08;4.40;99.90
33715;DHT22;20043;50.998;4.754;2024-01-27T08:48:36;4.50;99.90
33715;DHT22;20043;50.998;4.754;2024-01-27T08:51:02;4.40;99.90
33715;DHT22;20043;50.998;4.754;2024-01-27T08:53:28;4.40;99.90
33715;DHT22;20043;50.998;4.754;2024-01-27T08:55:54;4.50;99.90
33715;DHT22;20043;50.998;4.754;2024-01-27T08:58:19;4.40;99.90
33715;DHT22;20043;50.998;4.754;2024-01-27T09:00:45;4.50;99.90
33715;DHT22;20043;50.998;4.754;2024-01-27T09:03:10;4.70;99.90
33715;DHT22;20043;50.998;4.754;2024-01-27T09:05:37;4.50;99.90
33715;DHT22;20043;50.998;4.754;2024-01-27T09:08:04;4.60;99.90
33715;DHT22;20043;50.998;4.754;2024-01-27T09:10:29;4.60;99.90
33715;DHT22;20043;50.998;4.754;2024-01-27T09:12:55;4.70;99.90
33715;DHT22;20043;50.998;4.754;2024-01-27T09:15:21;4.80;99.90
33715;DHT22;20043;50.998;4.754;2024-01-27T09:17:46;4.80;99.90
33715;DHT22;20043;50.998;4.754;2024-01-27T09:20:13;4.90;99.90
33715;DHT22;20043;50.998;4.754;2024-01-27T09:22:40;5.00;99.90
33715;DHT22;20043;50.998;4.754;2024-01-27T09:25:07;5.10;99.90
33715;DHT22;20043;50.998;4.754;2024-01-27T09:27:34;5.10;99.90
33715;DHT22;20043;50.998;4.754;2024-01-27T09:29:59;5.10;99.90
33715;DHT22;20043;50.998;4.754;2024-01-27T09:32:25;5.10;99.90
33715;DHT22;20043;50.998;4.754;2024-01-27T09:34:50;5.10;99.90
33715;DHT22;20043;50.998;4.754;2024-01-27T09:37:19;5.30;99.90
33715;DHT22;20043;50.998;4.754;2024-01-27T09:39:44;5.50;99.90
33715;DHT22;20043;50.998;4.754;2024-01-27T09:42:13;5.70;99.90
33715;DHT22;20043;50.998;4.754;2024-01-27T09:44:43;5.70;99.90
33715;DHT22;20043;50.998;4.754;2024-01-27T09:47:10;5.90;99.90
33715;DHT22;20043;50.998;4.754;2024-01-27T09:49:39;6.10;99.90
33715;DHT22;20043;50.998;4.754;2024-01-27T09:52:05;6.20;99.90
33715;DHT22;20043;50.998;4.754;2024-01-27T09:54:30;6.20;99.90
33715;DHT22;20043;50.998;4.754;2024-01-27T09:56:56;6.20;99.90
33715;DHT22;20043;50.998;4.754;2024-01-27T09:59:23;6.20;99.90
33715;DHT22;20043;50.998;4.754;2024-01-27T10:01:56;6.20;99.90
33715;DHT22;20043;50.998;4.754;2024-01-27T10:04:23;6.30;99.90
33715;DHT22;20043;50.998;4.754;2024-01-27T10:06:50;6.40;99.90
33715;DHT22;20043;50.998;4.754;2024-01-27T10:09:17;6.30;99.90
33715;DHT22;20043;50.998;4.754;2024-01-27T10:11:46;6.50;99.90
33715;DHT22;20043;50.998;4.754;2024-01-27T10:14:13;6.40;99.90
33715;DHT22;20043;50.998;4.754;2024-01-27T10:16:43;6.40;99.90
33715;DHT22;20043;50.998;4.754;2024-01-27T10:19:15;6.50;99.90
33715;DHT22;20043;50.998;4.754;2024-01-27T10:21:45;6.60;99.90
33715;DHT22;20043;50.998;4.754;2024-01-27T10:24:10;6.70;99.90
33715;DHT22;20043;50.998;4.754;2024-01-27T10:26:36;6.70;99.90
33715;DHT22;20043;50.998;4.754;2024-01-27T10:29:02;6.80;99.90
33715;DHT22;20043;50.998;4.754;2024-01-27T10:31:28;6.90;99.90
33715;DHT22;20043;50.998;4.754;2024-01-27T10:33:56;7.00;99.90
33715;DHT22;20043;50.998;4.754;2024-01-27T10:36:23;7.20;99.90
33715;DHT22;20043;50.998;4.754;2024-01-27T10:38:49;7.40;99.90
33715;DHT22;20043;50.998;4.754;2024-01-27T10:41:24;7.40;99.90
33715;DHT22;20043;50.998;4.754;2024-01-27T10:43:52;7.50;99.90
33715;DHT22;20043;50.998;4.754;2024-01-27T10:46:19;7.40;99.90
33715;DHT22;20043;50.998;4.754;2024-01-27T10:48:51;7.40;99.90
33715;DHT22;20043;50.998;4.754;2024-01-27T10:51:36;7.60;99.90
33715;DHT22;20043;50.998;4.754;2024-01-27T10:54:03;7.70;99.90
33715;DHT22;20043;50.998;4.754;2024-01-27T10:56:32;7.90;99.90
33715;DHT22;20043;50.998;4.754;2024-01-27T10:59:01;7.90;99.90
33715;DHT22;20043;50.998;4.754;2024-01-27T11:01:28;7.70;99.90
33715;DHT22;20043;50.998;4.754;2024-01-27T11:03:57;7.70;99.90
33715;DHT22;20043;50.998;4.754;2024-01-27T11:06:25;7.70;99.90
33715;DHT22;20043;50.998;4.754;2024-01-27T11:08:53;7.70;99.90
33715;DHT22;20043;50.998;4.754;2024-01-27T11:11:20;7.50;99.90
33715;DHT22;20043;50.998;4.754;2024-01-27T11:13:46;7.60;99.90
33715;DHT22;20043;50.998;4.754;2024-01-27T11:16:17;7.60;99.90
33715;DHT22;20043;50.998;4.754;2024-01-27T11:18:44;7.60;99.90
33715;DHT22;20043;50.998;4.754;2024-01-27T11:21:17;7.70;99.90
33715;DHT22;20043;50.998;4.754;2024-01-27T11:23:43;7.80;99.90
33715;DHT22;20043;50.998;4.754;2024-01-27T11:26:10;7.90;99.90
33715;DHT22;20043;50.998;4.754;2024-01-27T11:28:38;8.00;99.90
33715;DHT22;20043;50.998;4.754;2024-01-27T11:31:05;8.10;99.90
33715;DHT22;20043;50.998;4.754;2024-01-27T11:33:31;8.20;99.90
33715;DHT22;20043;50.998;4.754;2024-01-27T11:36:03;8.20;99.90
33715;DHT22;20043;50.998;4.754;2024-01-27T11:38:31;8.10;99.90
33715;DHT22;20043;50.998;4.754;2024-01-27T11:40:57;8.20;99.90
33715;DHT22;20043;50.998;4.754;2024-01-27T11:43:23;8.30;99.90
33715;DHT22;20043;50.998;4.754;2024-01-27T11:45:58;8.40;99.90
33715;DHT22;20043;50.998;4.754;2024-01-27T11:48:24;8.60;99.90
33715;DHT22;20043;50.998;4.754;2024-01-27T11:51:00;8.50;99.90
33715;DHT22;20043;50.998;4.754;2024-01-27T11:53:26;8.50;99.90
33715;DHT22;20043;50.998;4.754;2024-01-27T11:55:55;8.60;99.90
33715;DHT22;20043;50.998;4.754;2024-01-27T11:58:24;8.60;99.90
33715;DHT22;20043;50.998;4.754;2024-01-27T12:00:50;8.60;99.90
33715;DHT22;20043;50.998;4.754;2024-01-27T12:03:16;8.70;99.90
33715;DHT22;20043;50.998;4.754;2024-01-27T12:05:41;8.80;99.90
33715;DHT22;20043;50.998;4.754;2024-01-27T12:08:08;8.80;99.90
33715;DHT22;20043;50.998;4.754;2024-01-27T12:10:33;8.80;99.90
33715;DHT22;20043;50.998;4.754;2024-01-27T12:13:00;8.80;99.90
33715;DHT22;20043;50.998;4.754;2024-01-27T12:15:26;8.90;99.90
33715;DHT22;20043;50.998;4.754;2024-01-27T12:17:52;8.90;99.90
33715;DHT22;20043;50.998;4.754;2024-01-27T12:20:18;8.90;99.90
33715;DHT22;20043;50.998;4.754;2024-01-27T12:22:43;8.80;99.90
33715;DHT22;20043;50.998;4.754;2024-01-27T12:25:11;8.70;99.90
33715;DHT22;20043;50.998;4.754;2024-01-27T12:27:42;8.60;99.90
33715;DHT22;20043;50.998;4.754;2024-01-27T12:30:14;8.60;99.90
33715;DHT22;20043;50.998;4.754;2024-01-27T12:32:40;8.70;99.90
33715;DHT22;20043;50.998;4.754;2024-01-27T12:35:07;8.80;99.90
33715;DHT22;20043;50.998;4.754;2024-01-27T12:37:34;8.90;99.90
33715;DHT22;20043;50.998;4.754;2024-01-27T12:40:00;9.10;99.90
33715;DHT22;20043;50.998;4.754;2024-01-27T12:42:25;9.10;99.90
33715;DHT22;20043;50.998;4.754;2024-01-27T12:44:51;9.30;99.90
33715;DHT22;20043;50.998;4.754;2024-01-27T12:47:17;9.30;99.90
33715;DHT22;20043;50.998;4.754;2024-01-27T12:49:45;9.20;99.90
33715;DHT22;20043;50.998;4.754;2024-01-27T12:52:10;9.20;99.90
33715;DHT22;20043;50.998;4.754;2024-01-27T12:54:36;9.20;99.90
33715;DHT22;20043;50.998;4.754;2024-01-27T12:57:02;9.10;99.90
33715;DHT22;20043;50.998;4.754;2024-01-27T12:59:28;9.20;99.90
33715;DHT22;20043;50.998;4.754;2024-01-27T13:01:54;9.20;99.90
33715;DHT22;20043;50.998;4.754;2024-01-27T13:04:29;9.20;99.90
33715;DHT22;20043;50.998;4.754;2024-01-27T13:06:55;9.20;99.90
33715;DHT22;20043;50.998;4.754;2024-01-27T13:09:20;9.30;99.90
33715;DHT22;20043;50.998;4.754;2024-01-27T13:11:46;9.30;99.90
33715;DHT22;20043;50.998;4.754;2024-01-27T13:14:12;9.30;99.90
33715;DHT22;20043;50.998;4.754;2024-01-27T13:16:38;9.30;99.90
33715;DHT22;20043;50.998;4.754;2024-01-27T13:19:03;9.30;99.90
33715;DHT22;20043;50.998;4.754;2024-01-27T13:21:29;9.30;99.90
33715;DHT22;20043;50.998;4.754;2024-01-27T13:23:55;9.20;99.90
33715;DHT22;20043;50.998;4.754;2024-01-27T13:26:21;9.40;99.90
33715;DHT22;20043;50.998;4.754;2024-01-27T13:28:47;9.50;99.90
33715;DHT22;20043;50.998;4.754;2024-01-27T13:31:16;9.60;99.90
33715;DHT22;20043;50.998;4.754;2024-01-27T13:33:41;9.60;99.90
33715;DHT22;20043;50.998;4.754;2024-01-27T13:36:07;9.70;99.90
33715;DHT22;20043;50.998;4.754;2024-01-27T13:38:33;9.50;99.90
33715;DHT22;20043;50.998;4.754;2024-01-27T13:41:01;9.70;99.90
33715;DHT22;20043;50.998;4.754;2024-01-27T13:43:26;9.70;99.90
33715;DHT22;20043;50.998;4.754;2024-01-27T13:45:52;9.60;99.90
33715;DHT22;20043;50.998;4.754;2024-01-27T13:48:20;9.70;99.90
33715;DHT22;20043;50.998;4.754;2024-01-27T13:50:46;9.70;99.90
33715;DHT22;20043;50.998;4.754;2024-01-27T13:53:11;9.70;99.90
33715;DHT22;20043;50.998;4.754;2024-01-27T13:55:37;9.70;99.90
33715;DHT22;20043;50.998;4.754;2024-01-27T13:58:03;9.70;99.90
33715;DHT22;20043;50.998;4.754;2024-01-27T14:00:29;9.80;99.90
33715;DHT22;20043;50.998;4.754;2024-01-27T14:02:56;9.80;99.90
33715;DHT22;20043;50.998;4.754;2024-01-27T14:05:21;9.80;99.90
33715;DHT22;20043;50.998;4.754;2024-01-27T14:07:47;9.70;99.90
33715;DHT22;20043;50.998;4.754;2024-01-27T14:10:13;9.70;99.90
33715;DHT22;20043;50.998;4.754;2024-01-27T14:12:39;9.60;99.90
33715;DHT22;20043;50.998;4.754;2024-01-27T14:15:05;9.70;99.90
33715;DHT22;20043;50.998;4.754;2024-01-27T14:17:35;9.90;99.90
33715;DHT22;20043;50.998;4.754;2024-01-27T14:20:02;10.10;99.90
33715;DHT22;20043;50.998;4.754;2024-01-27T14:22:28;10.00;99.90
33715;DHT22;20043;50.998;4.754;2024-01-27T14:24:54;10.10;99.90
33715;DHT22;20043;50.998;4.754;2024-01-27T14:27:20;10.20;99.90
33715;DHT22;20043;50.998;4.754;2024-01-27T14:29:52;10.30;99.90
33715;DHT22;20043;50.998;4.754;2024-01-27T14:32:18;10.40;99.90
33715;DHT22;20043;50.998;4.754;2024-01-27T14:34:44;10.50;99.90
33715;DHT22;20043;50.998;4.754;2024-01-27T14:37:10;10.50;99.90
33715;DHT22;20043;50.998;4.754;2024-01-27T14:39:35;10.30;99.90
33715;DHT22;20043;50.998;4.754;2024-01-27T14:42:02;10.30;99.90
33715;DHT22;20043;50.998;4.754;2024-01-27T14:44:29;10.50;99.90
33715;DHT22;20043;50.998;4.754;2024-01-27T14:46:55;10.70;99.90
33715;DHT22;20043;50.998;4.754;2024-01-27T14:49:21;10.60;99.90
33715;DHT22;20043;50.998;4.754;2024-01-27T14:51:47;10.70;99.90
33715;DHT22;20043;50.998;4.754;2024-01-27T14:54:13;10.60;99.90
33715;DHT22;20043;50.998;4.754;2024-01-27T14:56:39;10.50;99.90
33715;DHT22;20043;50.998;4.754;2024-01-27T14:59:04;10.40;99.90
33715;DHT22;20043;50.998;4.754;2024-01-27T15:01:33;10.30;99.90
33715;DHT22;20043;50.998;4.754;2024-01-27T15:03:58;10.40;99.90
33715;DHT22;20043;50.998;4.754;2024-01-27T15:06:26;10.50;99.90
33715;DHT22;20043;50.998;4.754;2024-01-27T15:08:53;10.40;99.90
33715;DHT22;20043;50.998;4.754;2024-01-27T15:11:18;10.30;99.90
33715;DHT22;20043;50.998;4.754;2024-01-27T15:13:44;10.40;99.90
33715;DHT22;20043;50.998;4.754;2024-01-27T15:16:10;10.50;99.90
33715;DHT22;20043;50.998;4.754;2024-01-27T15:18:36;10.60;99.90
33715;DHT22;20043;50.998;4.754;2024-01-27T15:21:06;10.60;99.90
33715;DHT22;20043;50.998;4.754;2024-01-27T15:23:32;10.60;99.90
33715;DHT22;20043;50.998;4.754;2024-01-27T15:25:59;10.50;99.90
33715;DHT22;20043;50.998;4.754;2024-01-27T15:28:27;10.50;99.90
33715;DHT22;20043;50.998;4.754;2024-01-27T15:30:52;10.40;99.90
33715;DHT22;20043;50.998;4.754;2024-01-27T15:33:18;10.30;99.90
33715;DHT22;20043;50.998;4.754;2024-01-27T15:35:43;10.20;99.90
33715;DHT22;20043;50.998;4.754;2024-01-27T15:38:09;10.10;99.90
33715;DHT22;20043;50.998;4.754;2024-01-27T15:40:35;10.00;99.90